createdAt,value
2022-12-14T08:52:43.336Z,61.00
2022-12-14T08:53:47.728Z,61.10
2022-12-14T08:54:50.887Z,61.00
2022-12-14T08:55:53.999Z,61.00
2022-12-14T08:56:57.159Z,61.00
2022-12-14T08:58:00.465Z,60.60
2022-12-14T08:59:03.650Z,60.60
2022-12-14T09:00:08.864Z,60.00
2022-12-14T09:01:14.389Z,58.90
2022-12-14T09:02:17.775Z,59.40
2022-12-14T09:03:20.080Z,59.50
2022-12-14T09:04:23.301Z,59.80
2022-12-14T09:05:26.803Z,59.80
2022-12-14T09:06:30.032Z,59.80
2022-12-14T09:07:33.986Z,59.40
2022-12-14T09:08:38.853Z,59.80
2022-12-14T09:09:42.368Z,59.60
2022-12-14T09:10:50.659Z,59.40
2022-12-14T09:11:53.832Z,59.40
2022-12-14T09:12:57.128Z,59.70
2022-12-14T09:13:59.416Z,60.00
2022-12-14T09:15:02.609Z,59.70
2022-12-14T09:16:09.485Z,59.60
2022-12-14T09:17:12.658Z,59.50
2022-12-14T09:18:14.942Z,59.60
2022-12-14T09:19:18.131Z,59.00
2022-12-14T09:20:21.315Z,58.20
2022-12-14T09:21:25.086Z,57.60
2022-12-14T09:22:28.568Z,58.30
2022-12-14T09:23:33.553Z,57.40
2022-12-14T09:24:38.390Z,57.80
2022-12-14T09:25:41.670Z,58.00
2022-12-14T09:26:44.871Z,58.20
2022-12-14T09:27:50.953Z,58.10
2022-12-14T09:28:55.713Z,58.50
2022-12-14T09:29:58.885Z,57.50
2022-12-14T09:31:02.554Z,57.00
2022-12-14T09:32:06.413Z,57.20
2022-12-14T09:33:08.619Z,57.50
2022-12-14T09:34:12.354Z,56.30
2022-12-14T09:35:16.253Z,57.60
2022-12-14T09:36:21.949Z,58.20
2022-12-14T09:37:24.125Z,58.60
2022-12-14T09:38:27.223Z,58.80
2022-12-14T09:39:30.548Z,58.90
2022-12-14T09:40:36.218Z,59.00
2022-12-14T09:42:01.062Z,59.00
2022-12-14T09:43:09.749Z,58.80
2022-12-14T09:44:20.498Z,58.20
2022-12-14T09:45:29.488Z,58.40
2022-12-14T09:51:22.801Z,58.20
2022-12-14T09:57:43.602Z,57.70
2022-12-14T10:00:41.008Z,55.90
2022-12-14T10:03:12.608Z,56.20
2022-12-14T10:04:38.363Z,56.60
2022-12-14T10:06:04.748Z,56.80
2022-12-14T10:13:37.862Z,57.20
2022-12-14T10:20:07.004Z,56.10
2022-12-14T10:21:32.429Z,56.60
2022-12-14T10:22:43.664Z,56.10
2022-12-14T10:33:29.866Z,57.70
2022-12-14T10:34:38.581Z,57.40
2022-12-14T10:35:52.471Z,57.50
2022-12-14T10:39:36.478Z,57.30
2022-12-14T10:40:52.411Z,57.00
2022-12-14T10:42:08.050Z,56.80
2022-12-14T10:43:31.786Z,57.10
2022-12-14T10:44:53.372Z,57.00
2022-12-14T10:46:14.873Z,56.90
2022-12-14T10:47:26.800Z,56.60
2022-12-14T10:48:45.249Z,56.30
2022-12-14T10:49:58.792Z,56.70
2022-12-14T10:51:08.654Z,57.00
2022-12-14T10:52:18.779Z,56.70
2022-12-14T10:53:38.745Z,56.70
2022-12-14T10:54:48.489Z,56.30
2022-12-14T10:55:59.595Z,56.30
2022-12-14T10:57:03.350Z,55.30
2022-12-14T10:58:06.961Z,55.40
2022-12-14T10:59:27.495Z,55.30
2022-12-14T11:00:30.989Z,55.40
2022-12-14T11:01:33.396Z,55.00
2022-12-14T11:02:41.446Z,54.60
2022-12-14T11:03:52.135Z,55.20
2022-12-14T11:04:59.530Z,55.50
2022-12-14T11:06:13.597Z,54.40
2022-12-14T11:07:20.043Z,53.50
2022-12-14T11:08:41.681Z,53.50
2022-12-14T11:09:46.279Z,52.70
2022-12-14T11:10:56.788Z,53.30
2022-12-14T11:12:03.928Z,53.30
2022-12-14T11:13:15.693Z,53.80
2022-12-14T11:14:24.600Z,53.30
2022-12-14T11:15:33.180Z,54.10
2022-12-14T11:16:38.316Z,54.60
2022-12-14T11:17:44.531Z,54.70
2022-12-14T11:18:59.281Z,54.90
2022-12-14T11:20:20.648Z,55.50
2022-12-14T11:21:31.226Z,55.60
2022-12-14T11:22:45.282Z,55.60
2022-12-14T11:23:56.177Z,55.60
2022-12-14T11:24:59.339Z,55.00
2022-12-14T11:26:06.069Z,54.40
2022-12-14T11:27:13.144Z,54.30
2022-12-14T11:28:36.537Z,54.90
2022-12-14T11:29:45.366Z,55.50
2022-12-14T11:31:04.751Z,55.90
2022-12-14T11:32:19.576Z,55.90
2022-12-14T11:33:23.349Z,55.90
2022-12-14T11:34:35.026Z,55.90
2022-12-14T11:35:39.658Z,56.10
2022-12-14T11:36:44.228Z,56.00
2022-12-14T11:37:50.175Z,55.90
2022-12-14T11:38:57.383Z,55.90
2022-12-14T11:40:03.923Z,56.10
2022-12-14T11:41:11.900Z,56.10
2022-12-14T11:42:19.695Z,56.10
2022-12-14T11:43:29.290Z,56.20
2022-12-14T11:44:36.595Z,56.20
2022-12-14T11:45:40.946Z,55.90
2022-12-14T11:46:46.446Z,55.60
2022-12-14T11:48:12.118Z,55.00
2022-12-14T11:49:26.543Z,55.30
2022-12-14T11:50:29.904Z,55.40
2022-12-14T11:51:34.932Z,54.30
2022-12-14T11:52:43.470Z,54.00
2022-12-14T11:54:04.026Z,54.20
2022-12-14T11:55:13.849Z,54.10
2022-12-14T11:56:19.527Z,52.50
2022-12-14T11:57:29.109Z,53.00
2022-12-14T11:58:37.517Z,53.00
2022-12-14T11:59:46.502Z,53.00
2022-12-14T12:00:53.405Z,53.20
2022-12-14T12:01:56.576Z,53.80
2022-12-14T12:03:03.757Z,54.40
2022-12-14T12:04:16.697Z,53.80
2022-12-14T12:05:23.123Z,53.60
2022-12-14T12:06:29.916Z,53.90
2022-12-14T12:07:40.369Z,53.90
2022-12-14T12:08:46.599Z,54.00
2022-12-14T12:09:49.315Z,54.10
2022-12-14T12:10:55.560Z,53.00
2022-12-14T12:12:05.260Z,53.60
2022-12-14T12:13:20.663Z,53.30
2022-12-14T12:14:36.554Z,53.90
2022-12-14T12:15:43.374Z,54.10
2022-12-14T12:16:53.946Z,54.30
2022-12-14T12:18:05.439Z,54.50
2022-12-14T12:19:14.833Z,54.80
2022-12-14T12:20:33.380Z,54.90
2022-12-14T12:21:41.139Z,55.20
2022-12-14T12:22:50.538Z,55.20
2022-12-14T12:23:59.641Z,55.10
2022-12-14T12:25:37.414Z,55.00
2022-12-14T12:26:35.478Z,55.00
2022-12-14T12:27:39.202Z,53.90
2022-12-14T12:28:47.696Z,54.10
2022-12-14T12:29:58.730Z,53.00
2022-12-14T12:31:10.919Z,53.00
2022-12-14T12:32:20.283Z,53.30
2022-12-14T12:33:36.220Z,54.20
2022-12-14T12:34:48.621Z,54.60
2022-12-14T12:35:54.869Z,54.80
2022-12-14T12:37:25.732Z,54.70
2022-12-14T12:38:50.036Z,54.50
2022-12-14T12:40:01.795Z,54.50
2022-12-14T12:41:16.698Z,54.40
2022-12-14T12:42:32.435Z,53.80
2022-12-14T12:43:41.170Z,53.60
2022-12-14T12:44:54.045Z,53.60
2022-12-14T12:46:03.377Z,53.80
2022-12-14T12:47:31.156Z,53.80
2022-12-14T12:48:47.346Z,53.60
2022-12-14T12:49:50.685Z,53.80
2022-12-14T12:51:01.124Z,52.50
2022-12-14T12:52:14.722Z,53.60
2022-12-14T12:53:23.740Z,53.30
2022-12-14T12:54:35.166Z,53.20
2022-12-14T12:55:43.459Z,53.10
2022-12-14T12:56:51.350Z,52.70
2022-12-14T12:57:58.983Z,52.30
2022-12-14T12:59:02.640Z,52.80
2022-12-14T13:00:07.139Z,53.00
2022-12-14T13:01:22.754Z,53.10
2022-12-14T13:02:33.320Z,52.40
2022-12-14T13:03:45.173Z,52.60
2022-12-14T13:04:52.960Z,53.30
2022-12-14T13:06:09.582Z,53.70
2022-12-14T13:07:27.597Z,53.90
2022-12-14T13:08:35.611Z,54.00
2022-12-14T13:09:45.489Z,53.80
2022-12-14T13:12:24.825Z,54.00
2022-12-14T13:13:33.423Z,54.40
2022-12-14T13:14:43.217Z,54.50
2022-12-14T13:15:57.874Z,54.60
2022-12-14T13:17:06.402Z,54.30
2022-12-14T13:18:41.159Z,54.20
2022-12-14T13:19:50.973Z,54.40
2022-12-14T13:20:57.797Z,54.40
2022-12-14T13:22:06.408Z,54.40
2022-12-14T13:23:43.628Z,54.50
2022-12-14T13:24:39.539Z,54.40
2022-12-14T13:25:54.487Z,54.60
2022-12-14T13:27:33.093Z,54.60
2022-12-14T13:28:55.491Z,54.40
2022-12-14T13:30:22.878Z,53.70
2022-12-14T13:31:36.412Z,54.00
2022-12-14T13:32:54.219Z,54.00
2022-12-14T13:34:17.473Z,53.70
2022-12-14T13:35:44.181Z,54.20
2022-12-14T13:37:22.969Z,53.80
2022-12-14T13:39:00.038Z,54.40
2022-12-14T13:40:41.134Z,54.50
2022-12-14T13:42:00.784Z,54.70
2022-12-14T13:43:31.869Z,54.70
2022-12-14T13:44:57.068Z,54.30
2022-12-14T13:46:07.860Z,54.70
2022-12-14T13:47:16.217Z,54.80
2022-12-14T13:48:24.869Z,55.00
2022-12-14T13:49:29.384Z,54.70
2022-12-14T13:50:43.354Z,55.00
2022-12-14T13:51:58.301Z,55.40
2022-12-14T13:53:05.864Z,55.10
2022-12-14T13:54:21.490Z,55.80
2022-12-14T13:55:33.179Z,55.30
2022-12-14T13:56:40.581Z,55.50
2022-12-14T13:57:42.998Z,55.60
2022-12-14T13:58:49.693Z,55.70
2022-12-14T13:59:55.739Z,55.80
2022-12-14T14:01:07.330Z,55.30
2022-12-14T14:02:40.063Z,54.50
2022-12-14T14:03:51.960Z,55.10
2022-12-14T14:05:45.639Z,55.20
2022-12-14T14:06:49.771Z,55.30
2022-12-14T14:07:58.019Z,55.20
2022-12-14T14:09:51.156Z,55.40
2022-12-14T14:11:13.939Z,55.20
2022-12-14T14:12:41.766Z,54.90
2022-12-14T14:14:17.615Z,55.00
2022-12-14T14:15:32.977Z,55.30
2022-12-14T14:16:42.893Z,55.50
2022-12-14T14:17:48.187Z,55.60
2022-12-14T14:18:59.735Z,55.80
2022-12-14T14:20:31.242Z,55.80
2022-12-14T14:22:13.970Z,55.80
2022-12-14T14:23:36.958Z,55.70
2022-12-14T14:24:56.245Z,55.70
2022-12-14T14:26:26.824Z,55.60
2022-12-14T14:27:37.437Z,55.60
2022-12-14T14:28:40.410Z,55.60
2022-12-14T14:29:49.593Z,55.50
2022-12-14T14:30:57.402Z,55.40
2022-12-14T14:32:02.992Z,55.30
2022-12-14T14:33:48.625Z,55.40
2022-12-14T14:34:53.761Z,55.20
2022-12-14T14:36:09.895Z,55.20
2022-12-14T14:37:33.620Z,55.30
2022-12-14T14:38:39.372Z,55.50
2022-12-14T14:39:56.099Z,55.50
2022-12-14T14:41:18.855Z,55.70
2022-12-14T14:42:27.469Z,55.70
2022-12-14T14:43:34.978Z,55.70
2022-12-14T14:44:44.726Z,55.70
2022-12-14T14:45:54.162Z,55.80
2022-12-14T14:46:57.759Z,55.80
2022-12-14T14:48:04.322Z,55.70
2022-12-14T14:49:22.275Z,55.70
2022-12-14T14:50:31.220Z,55.80
2022-12-14T14:51:37.258Z,55.80
2022-12-14T14:53:16.544Z,56.00
2022-12-14T14:55:10.625Z,56.20
2022-12-14T14:56:17.559Z,56.30
2022-12-14T14:57:58.292Z,56.60
2022-12-14T14:59:38.541Z,56.60
2022-12-14T15:00:50.503Z,56.70
2022-12-14T15:01:58.095Z,56.80
2022-12-14T15:03:01.997Z,56.90
2022-12-14T15:04:21.566Z,56.90
2022-12-14T15:05:41.963Z,56.80
2022-12-14T15:06:51.467Z,56.90
2022-12-14T15:07:58.536Z,57.00
2022-12-14T15:09:08.282Z,57.00
2022-12-14T15:10:25.312Z,57.00
2022-12-14T15:11:35.521Z,57.30
2022-12-14T15:12:46.655Z,57.30
2022-12-14T15:13:57.657Z,57.40
2022-12-14T15:15:04.603Z,57.30
2022-12-14T15:16:28.975Z,57.40
2022-12-14T15:17:31.588Z,57.50
2022-12-14T15:18:34.791Z,57.50
2022-12-14T15:19:38.640Z,57.40
2022-12-14T15:20:42.672Z,57.50
2022-12-14T15:21:46.912Z,57.40
2022-12-14T15:22:51.681Z,57.40
2022-12-14T15:23:57.393Z,57.30
2022-12-14T15:25:05.657Z,57.20
2022-12-14T15:26:16.899Z,57.30
2022-12-14T15:27:27.674Z,57.20
2022-12-14T15:28:32.349Z,57.20
2022-12-14T15:29:35.767Z,57.40
2022-12-14T15:30:37.981Z,57.40
2022-12-14T15:31:42.009Z,57.50
2022-12-14T15:32:54.493Z,57.60
2022-12-14T15:34:00.165Z,57.80
2022-12-14T15:35:07.840Z,58.10
2022-12-14T15:36:17.098Z,58.00
2022-12-14T15:37:29.073Z,58.00
2022-12-14T15:38:33.791Z,58.20
2022-12-14T15:39:40.623Z,58.00
2022-12-14T15:40:55.472Z,57.90
2022-12-14T15:42:13.788Z,57.90
2022-12-14T15:43:20.409Z,57.90
2022-12-14T15:44:23.996Z,57.80
2022-12-14T15:45:29.706Z,57.80
2022-12-14T15:46:40.307Z,57.80
2022-12-14T15:47:43.894Z,57.80
2022-12-14T15:48:57.236Z,57.70
2022-12-14T15:50:22.795Z,57.80
2022-12-14T15:51:32.658Z,57.70
2022-12-14T15:52:36.525Z,57.70
2022-12-14T15:53:44.644Z,57.70
2022-12-14T15:54:53.936Z,57.70
2022-12-14T15:56:02.950Z,57.70
2022-12-14T15:57:19.055Z,57.60
2022-12-14T15:58:30.056Z,57.70
2022-12-14T15:59:36.750Z,57.70
2022-12-14T16:00:48.165Z,57.80
2022-12-14T16:02:04.948Z,57.60
2022-12-14T16:03:24.161Z,57.70
2022-12-14T16:04:29.196Z,57.70
2022-12-14T16:05:36.383Z,57.60
2022-12-14T16:06:43.389Z,57.50
2022-12-14T16:07:50.953Z,57.40
2022-12-14T16:09:00.864Z,57.20
2022-12-14T16:10:09.662Z,57.30
2022-12-14T16:11:23.520Z,57.20
2022-12-14T16:12:33.208Z,57.20
2022-12-14T16:13:41.829Z,57.20
2022-12-14T16:14:54.314Z,57.20
2022-12-14T16:15:59.966Z,57.20
2022-12-14T16:17:05.514Z,57.10
2022-12-14T16:18:15.127Z,57.00
2022-12-14T16:19:27.705Z,57.00
2022-12-14T16:20:34.149Z,57.00
2022-12-14T16:21:37.718Z,57.10
2022-12-14T16:22:42.171Z,57.20
2022-12-14T16:23:46.350Z,57.20
2022-12-14T16:25:04.572Z,57.20
2022-12-14T16:26:24.763Z,57.30
2022-12-14T16:27:28.440Z,57.10
2022-12-14T16:28:33.990Z,57.20
2022-12-14T16:29:36.190Z,57.40
2022-12-14T16:30:55.643Z,57.30
2022-12-14T16:32:02.460Z,57.30
2022-12-14T16:33:16.402Z,57.30
2022-12-14T16:34:23.503Z,57.10
2022-12-14T16:35:28.186Z,57.00
2022-12-14T16:36:36.651Z,57.10
2022-12-14T16:37:38.850Z,57.30
2022-12-14T16:38:56.060Z,57.30
2022-12-14T16:39:58.414Z,57.50
2022-12-14T16:41:03.930Z,57.80
2022-12-14T16:42:19.222Z,58.20
2022-12-14T16:43:32.104Z,58.30
2022-12-14T16:44:37.637Z,58.30
2022-12-14T16:46:19.712Z,58.80
2022-12-14T16:47:49.849Z,58.10
2022-12-14T16:49:20.122Z,58.00
2022-12-14T16:50:55.431Z,58.00
2022-12-14T16:52:12.416Z,57.90
2022-12-14T16:53:22.114Z,57.90
2022-12-14T16:54:29.302Z,58.10
2022-12-14T16:55:32.577Z,58.20
2022-12-14T16:56:45.168Z,57.90
2022-12-14T16:57:55.634Z,57.90
2022-12-14T16:59:03.677Z,57.90
2022-12-14T17:00:09.159Z,57.90
2022-12-14T17:01:11.667Z,58.30
2022-12-14T17:02:32.955Z,58.20
2022-12-14T17:03:37.655Z,58.90
2022-12-14T17:04:44.267Z,58.10
2022-12-14T17:05:55.794Z,58.30
2022-12-14T17:06:59.117Z,58.30
2022-12-14T17:08:01.716Z,58.20
2022-12-14T17:09:05.947Z,58.10
2022-12-14T17:10:16.780Z,58.00
2022-12-14T17:11:18.994Z,58.70
2022-12-14T17:12:53.158Z,58.00
2022-12-14T17:18:34.857Z,57.90
2022-12-14T17:19:49.389Z,57.90
2022-12-14T17:22:42.139Z,58.00
2022-12-14T18:52:26.300Z,59.80
2022-12-14T18:54:33.733Z,59.50
